sensor_id;sensor_type;location;lat;lon;timestamp;temperature;humidity
34833;DHT22;55941;50.800;4.342;2022-08-19T00:01:50;21.30;99.90
34833;DHT22;55941;50.800;4.342;2022-08-19T00:04:19;21.30;99.90
34833;DHT22;55941;50.800;4.342;2022-08-19T00:06:51;21.30;99.90
34833;DHT22;55941;50.800;4.342;2022-08-19T00:09:19;21.50;99.90
34833;DHT22;55941;50.800;4.342;2022-08-19T00:11:45;21.30;99.90
34833;DHT22;55941;50.800;4.342;2022-08-19T00:14:14;21.30;99.90
34833;DHT22;55941;50.800;4.342;2022-08-19T00:16:45;21.20;99.90
34833;DHT22;55941;50.800;4.342;2022-08-19T00:19:11;21.20;99.90
34833;DHT22;55941;50.800;4.342;2022-08-19T00:21:37;21.10;99.90
34833;DHT22;55941;50.800;4.342;2022-08-19T00:24:08;21.20;99.90
34833;DHT22;55941;50.800;4.342;2022-08-19T00:26:34;21.20;99.90
34833;DHT22;55941;50.800;4.342;2022-08-19T00:29:01;21.10;99.90
34833;DHT22;55941;50.800;4.342;2022-08-19T00:31:28;21.10;99.90
34833;DHT22;55941;50.800;4.342;2022-08-19T00:33:54;21.20;99.90
34833;DHT22;55941;50.800;4.342;2022-08-19T00:36:20;21.00;99.90
34833;DHT22;55941;50.800;4.342;2022-08-19T00:38:46;20.90;99.90
34833;DHT22;55941;50.800;4.342;2022-08-19T00:41:14;20.90;99.90
34833;DHT22;55941;50.800;4.342;2022-08-19T00:43:41;20.80;99.90
34833;DHT22;55941;50.800;4.342;2022-08-19T00:46:14;20.80;99.90
34833;DHT22;55941;50.800;4.342;2022-08-19T00:48:44;20.90;99.90
34833;DHT22;55941;50.800;4.342;2022-08-19T00:51:10;20.90;99.90
34833;DHT22;55941;50.800;4.342;2022-08-19T00:53:36;20.90;99.90
34833;DHT22;55941;50.800;4.342;2022-08-19T00:56:02;21.00;99.90
34833;DHT22;55941;50.800;4.342;2022-08-19T00:58:33;20.90;99.90
34833;DHT22;55941;50.800;4.342;2022-08-19T01:01:02;20.90;99.90
34833;DHT22;55941;50.800;4.342;2022-08-19T01:03:29;20.70;99.90
34833;DHT22;55941;50.800;4.342;2022-08-19T01:05:55;20.70;99.90
34833;DHT22;55941;50.800;4.342;2022-08-19T01:08:22;20.60;99.90
34833;DHT22;55941;50.800;4.342;2022-08-19T01:10:54;20.70;99.90
34833;DHT22;55941;50.800;4.342;2022-08-19T01:13:23;20.60;99.90
34833;DHT22;55941;50.800;4.342;2022-08-19T01:15:53;20.60;99.90
34833;DHT22;55941;50.800;4.342;2022-08-19T01:18:21;20.70;99.90
34833;DHT22;55941;50.800;4.342;2022-08-19T01:20:47;20.60;99.90
34833;DHT22;55941;50.800;4.342;2022-08-19T01:23:14;20.50;99.90
34833;DHT22;55941;50.800;4.342;2022-08-19T01:25:49;20.50;99.90
34833;DHT22;55941;50.800;4.342;2022-08-19T01:28:23;20.40;99.90
34833;DHT22;55941;50.800;4.342;2022-08-19T01:30:51;20.20;99.90
34833;DHT22;55941;50.800;4.342;2022-08-19T01:33:17;20.20;99.90
34833;DHT22;55941;50.800;4.342;2022-08-19T01:35:46;20.20;99.90
34833;DHT22;55941;50.800;4.342;2022-08-19T01:38:25;20.20;99.90
34833;DHT22;55941;50.800;4.342;2022-08-19T01:40:51;20.20;99.90
34833;DHT22;55941;50.800;4.342;2022-08-19T01:43:18;20.20;99.90
34833;DHT22;55941;50.800;4.342;2022-08-19T01:45:45;20.10;99.90
34833;DHT22;55941;50.800;4.342;2022-08-19T01:48:11;20.20;99.90
34833;DHT22;55941;50.800;4.342;2022-08-19T01:50:38;20.30;99.90
34833;DHT22;55941;50.800;4.342;2022-08-19T01:53:09;20.20;99.90
34833;DHT22;55941;50.800;4.342;2022-08-19T01:55:38;20.40;99.90
34833;DHT22;55941;50.800;4.342;2022-08-19T01:58:06;20.60;99.90
34833;DHT22;55941;50.800;4.342;2022-08-19T02:00:34;20.40;99.90
34833;DHT22;55941;50.800;4.342;2022-08-19T02:03:00;20.40;99.90
34833;DHT22;55941;50.800;4.342;2022-08-19T02:05:27;20.20;99.90
34833;DHT22;55941;50.800;4.342;2022-08-19T02:07:55;20.10;99.90
34833;DHT22;55941;50.800;4.342;2022-08-19T02:10:22;19.80;99.90
34833;DHT22;55941;50.800;4.342;2022-08-19T02:12:49;19.60;99.90
34833;DHT22;55941;50.800;4.342;2022-08-19T02:15:15;19.80;99.90
34833;DHT22;55941;50.800;4.342;2022-08-19T02:17:42;19.60;99.90
34833;DHT22;55941;50.800;4.342;2022-08-19T02:20:09;19.80;99.90
34833;DHT22;55941;50.800;4.342;2022-08-19T02:22:35;19.90;99.90
34833;DHT22;55941;50.800;4.342;2022-08-19T02:25:02;19.70;99.90
34833;DHT22;55941;50.800;4.342;2022-08-19T02:27:30;19.50;99.90
34833;DHT22;55941;50.800;4.342;2022-08-19T02:29:56;19.50;99.90
34833;DHT22;55941;50.800;4.342;2022-08-19T02:32:22;19.40;99.90
34833;DHT22;55941;50.800;4.342;2022-08-19T02:34:49;19.40;99.90
34833;DHT22;55941;50.800;4.342;2022-08-19T02:37:15;19.30;99.90
34833;DHT22;55941;50.800;4.342;2022-08-19T02:39:59;19.50;99.90
34833;DHT22;55941;50.800;4.342;2022-08-19T02:42:25;19.60;99.90
34833;DHT22;55941;50.800;4.342;2022-08-19T02:44:51;19.60;99.90
34833;DHT22;55941;50.800;4.342;2022-08-19T02:47:18;19.40;99.90
34833;DHT22;55941;50.800;4.342;2022-08-19T02:49:47;19.10;99.90
34833;DHT22;55941;50.800;4.342;2022-08-19T02:52:15;19.20;99.90
34833;DHT22;55941;50.800;4.342;2022-08-19T02:54:41;19.10;99.90
34833;DHT22;55941;50.800;4.342;2022-08-19T02:57:07;19.20;99.90
34833;DHT22;55941;50.800;4.342;2022-08-19T02:59:33;19.00;99.90
34833;DHT22;55941;50.800;4.342;2022-08-19T03:01:59;18.90;99.90
34833;DHT22;55941;50.800;4.342;2022-08-19T03:04:26;19.10;99.90
34833;DHT22;55941;50.800;4.342;2022-08-19T03:06:52;19.00;99.90
34833;DHT22;55941;50.800;4.342;2022-08-19T03:09:19;19.10;99.90
34833;DHT22;55941;50.800;4.342;2022-08-19T03:11:45;18.90;99.90
34833;DHT22;55941;50.800;4.342;2022-08-19T03:14:12;19.00;99.90
34833;DHT22;55941;50.800;4.342;2022-08-19T03:16:47;18.90;99.90
34833;DHT22;55941;50.800;4.342;2022-08-19T03:19:16;19.00;99.90
34833;DHT22;55941;50.800;4.342;2022-08-19T03:21:42;19.10;99.90
34833;DHT22;55941;50.800;4.342;2022-08-19T03:24:11;19.00;99.90
34833;DHT22;55941;50.800;4.342;2022-08-19T03:26:41;19.20;99.90
34833;DHT22;55941;50.800;4.342;2022-08-19T03:29:08;19.10;99.90
34833;DHT22;55941;50.800;4.342;2022-08-19T03:31:36;19.10;99.90
34833;DHT22;55941;50.800;4.342;2022-08-19T03:34:02;18.90;99.90
34833;DHT22;55941;50.800;4.342;2022-08-19T03:36:28;18.90;99.90
34833;DHT22;55941;50.800;4.342;2022-08-19T03:38:58;18.90;99.90
34833;DHT22;55941;50.800;4.342;2022-08-19T03:41:27;19.00;99.90
34833;DHT22;55941;50.800;4.342;2022-08-19T03:43:54;18.80;99.90
34833;DHT22;55941;50.800;4.342;2022-08-19T03:46:23;18.80;99.90
34833;DHT22;55941;50.800;4.342;2022-08-19T03:48:52;18.70;99.90
34833;DHT22;55941;50.800;4.342;2022-08-19T03:51:30;18.80;99.90
34833;DHT22;55941;50.800;4.342;2022-08-19T03:53:57;18.80;99.90
34833;DHT22;55941;50.800;4.342;2022-08-19T03:56:24;18.90;99.90
34833;DHT22;55941;50.800;4.342;2022-08-19T03:58:54;18.80;99.90
34833;DHT22;55941;50.800;4.342;2022-08-19T04:01:22;18.70;99.90
34833;DHT22;55941;50.800;4.342;2022-08-19T04:03:49;18.70;99.90
34833;DHT22;55941;50.800;4.342;2022-08-19T04:06:21;18.40;99.90
34833;DHT22;55941;50.800;4.342;2022-08-19T04:08:49;18.40;99.90
34833;DHT22;55941;50.800;4.342;2022-08-19T04:11:23;18.30;99.90
34833;DHT22;55941;50.800;4.342;2022-08-19T04:13:51;18.30;99.90
34833;DHT22;55941;50.800;4.342;2022-08-19T04:16:22;18.20;99.90
34833;DHT22;55941;50.800;4.342;2022-08-19T04:18:48;18.20;99.90
34833;DHT22;55941;50.800;4.342;2022-08-19T04:21:24;18.20;99.90
34833;DHT22;55941;50.800;4.342;2022-08-19T04:23:50;18.20;99.90
34833;DHT22;55941;50.800;4.342;2022-08-19T04:26:20;18.10;99.90
34833;DHT22;55941;50.800;4.342;2022-08-19T04:28:46;18.00;99.90
34833;DHT22;55941;50.800;4.342;2022-08-19T04:31:26;18.00;99.90
34833;DHT22;55941;50.800;4.342;2022-08-19T04:33:54;17.90;99.90
34833;DHT22;55941;50.800;4.342;2022-08-19T04:36:24;17.80;99.90
34833;DHT22;55941;50.800;4.342;2022-08-19T04:38:57;17.90;99.90
34833;DHT22;55941;50.800;4.342;2022-08-19T04:41:24;17.90;99.90
34833;DHT22;55941;50.800;4.342;2022-08-19T04:44:23;18.00;99.90
34833;DHT22;55941;50.800;4.342;2022-08-19T04:46:50;17.90;99.90
34833;DHT22;55941;50.800;4.342;2022-08-19T04:49:18;17.80;99.90
34833;DHT22;55941;50.800;4.342;2022-08-19T04:51:45;17.80;99.90
34833;DHT22;55941;50.800;4.342;2022-08-19T04:54:14;17.70;99.90
34833;DHT22;55941;50.800;4.342;2022-08-19T04:56:40;17.70;99.90
34833;DHT22;55941;50.800;4.342;2022-08-19T04:59:07;17.90;99.90
34833;DHT22;55941;50.800;4.342;2022-08-19T05:01:34;18.00;99.90
34833;DHT22;55941;50.800;4.342;2022-08-19T05:04:01;17.90;99.90
34833;DHT22;55941;50.800;4.342;2022-08-19T05:06:29;18.00;99.90
34833;DHT22;55941;50.800;4.342;2022-08-19T05:08:56;17.80;99.90
34833;DHT22;55941;50.800;4.342;2022-08-19T05:11:26;17.60;99.90
34833;DHT22;55941;50.800;4.342;2022-08-19T05:13:54;17.60;99.90
34833;DHT22;55941;50.800;4.342;2022-08-19T05:16:22;17.60;99.90
34833;DHT22;55941;50.800;4.342;2022-08-19T05:18:48;17.50;99.90
34833;DHT22;55941;50.800;4.342;2022-08-19T05:21:35;17.50;99.90
34833;DHT22;55941;50.800;4.342;2022-08-19T05:24:21;17.60;99.90
34833;DHT22;55941;50.800;4.342;2022-08-19T05:26:49;17.70;99.90
34833;DHT22;55941;50.800;4.342;2022-08-19T05:29:18;17.70;99.90
34833;DHT22;55941;50.800;4.342;2022-08-19T05:31:44;17.60;99.90
34833;DHT22;55941;50.800;4.342;2022-08-19T05:34:11;17.60;99.90
34833;DHT22;55941;50.800;4.342;2022-08-19T05:36:41;17.50;99.90
34833;DHT22;55941;50.800;4.342;2022-08-19T05:39:11;17.50;99.90
34833;DHT22;55941;50.800;4.342;2022-08-19T05:41:42;17.60;99.90
34833;DHT22;55941;50.800;4.342;2022-08-19T05:44:08;17.50;99.90
34833;DHT22;55941;50.800;4.342;2022-08-19T05:46:36;17.70;99.90
34833;DHT22;55941;50.800;4.342;2022-08-19T05:49:04;17.80;99.90
34833;DHT22;55941;50.800;4.342;2022-08-19T05:51:32;18.00;99.90
34833;DHT22;55941;50.800;4.342;2022-08-19T05:54:00;18.10;99.90
34833;DHT22;55941;50.800;4.342;2022-08-19T05:56:26;18.30;99.90
34833;DHT22;55941;50.800;4.342;2022-08-19T05:58:52;18.40;99.90
34833;DHT22;55941;50.800;4.342;2022-08-19T06:01:20;18.30;99.90
34833;DHT22;55941;50.800;4.342;2022-08-19T06:03:46;18.40;99.90
34833;DHT22;55941;50.800;4.342;2022-08-19T06:06:15;18.50;99.90
34833;DHT22;55941;50.800;4.342;2022-08-19T06:08:41;18.50;99.90
34833;DHT22;55941;50.800;4.342;2022-08-19T06:11:22;18.60;99.90
34833;DHT22;55941;50.800;4.342;2022-08-19T06:13:50;18.60;99.90
34833;DHT22;55941;50.800;4.342;2022-08-19T06:16:21;18.80;99.90
34833;DHT22;55941;50.800;4.342;2022-08-19T06:18:51;18.80;99.90
34833;DHT22;55941;50.800;4.342;2022-08-19T06:21:19;18.90;99.90
34833;DHT22;55941;50.800;4.342;2022-08-19T06:23:46;18.90;99.90
34833;DHT22;55941;50.800;4.342;2022-08-19T06:26:13;19.00;99.90
34833;DHT22;55941;50.800;4.342;2022-08-19T06:28:39;19.20;99.90
34833;DHT22;55941;50.800;4.342;2022-08-19T06:31:13;19.10;99.90
34833;DHT22;55941;50.800;4.342;2022-08-19T06:33:40;19.30;99.90
34833;DHT22;55941;50.800;4.342;2022-08-19T06:36:08;19.40;99.90
34833;DHT22;55941;50.800;4.342;2022-08-19T06:38:33;19.50;99.90
34833;DHT22;55941;50.800;4.342;2022-08-19T06:41:04;19.40;99.90
34833;DHT22;55941;50.800;4.342;2022-08-19T06:43:30;19.50;99.90
34833;DHT22;55941;50.800;4.342;2022-08-19T06:45:56;19.70;99.90
34833;DHT22;55941;50.800;4.342;2022-08-19T06:48:22;19.90;99.90
34833;DHT22;55941;50.800;4.342;2022-08-19T06:50:48;20.00;99.90
34833;DHT22;55941;50.800;4.342;2022-08-19T06:53:17;20.10;99.90
34833;DHT22;55941;50.800;4.342;2022-08-19T06:55:44;20.10;99.90
34833;DHT22;55941;50.800;4.342;2022-08-19T06:58:10;20.20;99.90
34833;DHT22;55941;50.800;4.342;2022-08-19T07:00:37;20.00;99.90
34833;DHT22;55941;50.800;4.342;2022-08-19T07:03:04;20.00;99.90
34833;DHT22;55941;50.800;4.342;2022-08-19T07:05:29;19.90;99.90
34833;DHT22;55941;50.800;4.342;2022-08-19T07:07:55;19.90;99.90
34833;DHT22;55941;50.800;4.342;2022-08-19T07:10:22;19.90;99.90
34833;DHT22;55941;50.800;4.342;2022-08-19T07:12:48;19.90;99.90
34833;DHT22;55941;50.800;4.342;2022-08-19T07:15:15;19.90;99.90
34833;DHT22;55941;50.800;4.342;2022-08-19T07:17:41;19.90;99.90
34833;DHT22;55941;50.800;4.342;2022-08-19T07:20:09;20.00;99.90
34833;DHT22;55941;50.800;4.342;2022-08-19T07:22:36;20.10;99.90
34833;DHT22;55941;50.800;4.342;2022-08-19T07:25:03;20.10;99.90
34833;DHT22;55941;50.800;4.342;2022-08-19T07:27:30;20.10;99.90
34833;DHT22;55941;50.800;4.342;2022-08-19T07:29:56;20.10;99.90
34833;DHT22;55941;50.800;4.342;2022-08-19T07:32:23;20.20;99.90
34833;DHT22;55941;50.800;4.342;2022-08-19T07:34:51;20.30;99.90
34833;DHT22;55941;50.800;4.342;2022-08-19T07:37:18;20.40;99.90
34833;DHT22;55941;50.800;4.342;2022-08-19T07:39:43;20.50;99.90
34833;DHT22;55941;50.800;4.342;2022-08-19T07:42:10;20.50;99.90
34833;DHT22;55941;50.800;4.342;2022-08-19T07:44:37;20.60;99.90
34833;DHT22;55941;50.800;4.342;2022-08-19T07:47:04;20.80;99.90
34833;DHT22;55941;50.800;4.342;2022-08-19T07:49:30;20.90;99.90
34833;DHT22;55941;50.800;4.342;2022-08-19T07:52:05;21.00;99.90
34833;DHT22;55941;50.800;4.342;2022-08-19T07:54:33;21.00;99.90
34833;DHT22;55941;50.800;4.342;2022-08-19T07:57:02;21.10;99.90
34833;DHT22;55941;50.800;4.342;2022-08-19T07:59:28;21.10;99.90
34833;DHT22;55941;50.800;4.342;2022-08-19T08:01:55;21.20;99.90
34833;DHT22;55941;50.800;4.342;2022-08-19T08:04:22;21.30;99.90
34833;DHT22;55941;50.800;4.342;2022-08-19T08:07:07;21.30;99.90
34833;DHT22;55941;50.800;4.342;2022-08-19T08:09:52;21.20;99.90
34833;DHT22;55941;50.800;4.342;2022-08-19T08:12:25;21.20;99.90
34833;DHT22;55941;50.800;4.342;2022-08-19T08:14:56;21.20;99.90
34833;DHT22;55941;50.800;4.342;2022-08-19T08:17:25;21.20;99.90
34833;DHT22;55941;50.800;4.342;2022-08-19T08:19:52;21.30;99.90
34833;DHT22;55941;50.800;4.342;2022-08-19T08:22:22;21.20;99.90
34833;DHT22;55941;50.800;4.342;2022-08-19T08:25:15;21.30;99.90
34833;DHT22;55941;50.800;4.342;2022-08-19T08:27:43;21.20;99.90
34833;DHT22;55941;50.800;4.342;2022-08-19T08:30:17;21.10;99.90
34833;DHT22;55941;50.800;4.342;2022-08-19T08:32:43;21.10;99.90
34833;DHT22;55941;50.800;4.342;2022-08-19T08:35:13;21.20;99.90
34833;DHT22;55941;50.800;4.342;2022-08-19T08:37:40;21.50;99.90
34833;DHT22;55941;50.800;4.342;2022-08-19T08:40:21;21.60;99.90
34833;DHT22;55941;50.800;4.342;2022-08-19T08:43:07;21.60;99.90
34833;DHT22;55941;50.800;4.342;2022-08-19T08:45:35;21.70;99.90
34833;DHT22;55941;50.800;4.342;2022-08-19T08:48:24;21.70;99.90
34833;DHT22;55941;50.800;4.342;2022-08-19T08:50:57;21.70;99.90
34833;DHT22;55941;50.800;4.342;2022-08-19T08:53:25;21.70;99.90
34833;DHT22;55941;50.800;4.342;2022-08-19T08:55:51;21.60;99.90
34833;DHT22;55941;50.800;4.342;2022-08-19T08:58:31;21.70;99.90
34833;DHT22;55941;50.800;4.342;2022-08-19T09:01:10;21.70;99.90
34833;DHT22;55941;50.800;4.342;2022-08-19T09:03:39;21.60;99.90
34833;DHT22;55941;50.800;4.342;2022-08-19T09:16:39;22.10;99.90
34833;DHT22;55941;50.800;4.342;2022-08-19T09:19:07;22.10;99.90
34833;DHT22;55941;50.800;4.342;2022-08-19T09:21:34;22.20;99.90
34833;DHT22;55941;50.800;4.342;2022-08-19T09:24:03;22.30;99.90
34833;DHT22;55941;50.800;4.342;2022-08-19T09:26:30;22.40;99.90
34833;DHT22;55941;50.800;4.342;2022-08-19T09:28:58;22.30;99.90
34833;DHT22;55941;50.800;4.342;2022-08-19T09:31:28;22.20;99.90
34833;DHT22;55941;50.800;4.342;2022-08-19T09:33:55;22.10;99.90
34833;DHT22;55941;50.800;4.342;2022-08-19T09:36:27;22.20;99.90
34833;DHT22;55941;50.800;4.342;2022-08-19T09:38:58;22.30;99.90
34833;DHT22;55941;50.800;4.342;2022-08-19T09:41:26;22.30;99.90
34833;DHT22;55941;50.800;4.342;2022-08-19T09:43:53;22.30;99.90
34833;DHT22;55941;50.800;4.342;2022-08-19T09:46:23;22.30;99.90
34833;DHT22;55941;50.800;4.342;2022-08-19T09:48:50;22.30;99.90
34833;DHT22;55941;50.800;4.342;2022-08-19T09:51:21;22.40;99.90
34833;DHT22;55941;50.800;4.342;2022-08-19T09:53:48;22.30;99.90
34833;DHT22;55941;50.800;4.342;2022-08-19T09:56:20;22.30;99.90
34833;DHT22;55941;50.800;4.342;2022-08-19T09:58:46;22.50;99.90
34833;DHT22;55941;50.800;4.342;2022-08-19T10:01:20;22.50;99.90
34833;DHT22;55941;50.800;4.342;2022-08-19T10:03:49;22.60;99.90
34833;DHT22;55941;50.800;4.342;2022-08-19T10:06:15;22.70;99.90
34833;DHT22;55941;50.800;4.342;2022-08-19T10:08:41;22.60;99.90
34833;DHT22;55941;50.800;4.342;2022-08-19T10:11:09;22.70;99.90
34833;DHT22;55941;50.800;4.342;2022-08-19T10:13:35;22.60;99.90
34833;DHT22;55941;50.800;4.342;2022-08-19T10:16:07;22.60;99.90
34833;DHT22;55941;50.800;4.342;2022-08-19T10:18:35;22.60;99.90
34833;DHT22;55941;50.800;4.342;2022-08-19T10:21:12;22.50;99.90
34833;DHT22;55941;50.800;4.342;2022-08-19T10:23:43;22.50;99.90
34833;DHT22;55941;50.800;4.342;2022-08-19T10:26:24;22.50;99.90
34833;DHT22;55941;50.800;4.342;2022-08-19T10:28:51;22.50;99.90
34833;DHT22;55941;50.800;4.342;2022-08-19T10:31:20;22.50;99.90
34833;DHT22;55941;50.800;4.342;2022-08-19T10:33:49;22.50;99.90
34833;DHT22;55941;50.800;4.342;2022-08-19T10:36:21;22.50;99.90
34833;DHT22;55941;50.800;4.342;2022-08-19T10:38:51;22.50;99.90
34833;DHT22;55941;50.800;4.342;2022-08-19T10:41:19;22.60;99.90
34833;DHT22;55941;50.800;4.342;2022-08-19T10:43:49;22.70;99.90
34833;DHT22;55941;50.800;4.342;2022-08-19T10:46:16;22.70;99.90
34833;DHT22;55941;50.800;4.342;2022-08-19T10:48:42;22.80;99.90
34833;DHT22;55941;50.800;4.342;2022-08-19T10:51:11;22.80;99.90
34833;DHT22;55941;50.800;4.342;2022-08-19T10:53:55;23.00;99.90
34833;DHT22;55941;50.800;4.342;2022-08-19T10:56:21;22.70;99.90
34833;DHT22;55941;50.800;4.342;2022-08-19T10:59:06;22.90;99.90
34833;DHT22;55941;50.800;4.342;2022-08-19T11:01:34;23.10;99.90
34833;DHT22;55941;50.800;4.342;2022-08-19T11:04:01;23.10;99.90
34833;DHT22;55941;50.800;4.342;2022-08-19T11:06:28;23.40;99.90
34833;DHT22;55941;50.800;4.342;2022-08-19T11:08:55;23.20;99.90
34833;DHT22;55941;50.800;4.342;2022-08-19T11:11:22;23.10;99.90
34833;DHT22;55941;50.800;4.342;2022-08-19T11:13:49;23.10;99.90
34833;DHT22;55941;50.800;4.342;2022-08-19T11:16:18;22.90;99.90
34833;DHT22;55941;50.800;4.342;2022-08-19T11:18:47;22.90;99.90
34833;DHT22;55941;50.800;4.342;2022-08-19T11:21:20;22.70;99.90
34833;DHT22;55941;50.800;4.342;2022-08-19T11:23:49;22.70;99.90
34833;DHT22;55941;50.800;4.342;2022-08-19T11:26:16;22.80;99.90
34833;DHT22;55941;50.800;4.342;2022-08-19T11:28:42;22.80;99.90
34833;DHT22;55941;50.800;4.342;2022-08-19T11:31:16;23.00;99.90
34833;DHT22;55941;50.800;4.342;2022-08-19T11:33:42;23.20;99.90
34833;DHT22;55941;50.800;4.342;2022-08-19T11:36:09;23.30;99.90
34833;DHT22;55941;50.800;4.342;2022-08-19T11:38:36;23.50;99.90
34833;DHT22;55941;50.800;4.342;2022-08-19T11:41:05;23.50;99.90
34833;DHT22;55941;50.800;4.342;2022-08-19T11:43:33;23.50;99.90
34833;DHT22;55941;50.800;4.342;2022-08-19T11:46:02;23.50;99.90
34833;DHT22;55941;50.800;4.342;2022-08-19T11:48:28;23.60;99.90
34833;DHT22;55941;50.800;4.342;2022-08-19T11:50:54;23.70;99.90
34833;DHT22;55941;50.800;4.342;2022-08-19T11:53:22;23.80;99.90
34833;DHT22;55941;50.800;4.342;2022-08-19T11:55:48;24.10;99.90
34833;DHT22;55941;50.800;4.342;2022-08-19T11:58:16;24.10;99.90
34833;DHT22;55941;50.800;4.342;2022-08-19T12:00:44;24.20;99.90
34833;DHT22;55941;50.800;4.342;2022-08-19T12:03:12;24.30;99.90
34833;DHT22;55941;50.800;4.342;2022-08-19T12:05:39;24.50;99.90
34833;DHT22;55941;50.800;4.342;2022-08-19T12:08:05;24.90;99.90
34833;DHT22;55941;50.800;4.342;2022-08-19T12:10:32;25.20;99.90
34833;DHT22;55941;50.800;4.342;2022-08-19T12:13:01;25.30;99.90
34833;DHT22;55941;50.800;4.342;2022-08-19T12:15:28;25.20;99.90
34833;DHT22;55941;50.800;4.342;2022-08-19T12:17:55;25.10;99.90
34833;DHT22;55941;50.800;4.342;2022-08-19T12:20:22;24.70;99.90
34833;DHT22;55941;50.800;4.342;2022-08-19T12:22:48;24.50;99.90
34833;DHT22;55941;50.800;4.342;2022-08-19T12:25:14;24.60;99.90
34833;DHT22;55941;50.800;4.342;2022-08-19T12:27:40;24.80;99.90
34833;DHT22;55941;50.800;4.342;2022-08-19T12:30:08;24.90;99.90
34833;DHT22;55941;50.800;4.342;2022-08-19T12:32:35;25.00;99.90
34833;DHT22;55941;50.800;4.342;2022-08-19T12:35:01;25.00;99.90
34833;DHT22;55941;50.800;4.342;2022-08-19T12:37:27;25.10;99.90
34833;DHT22;55941;50.800;4.342;2022-08-19T12:39:53;25.30;99.90
34833;DHT22;55941;50.800;4.342;2022-08-19T12:42:20;25.50;99.90
34833;DHT22;55941;50.800;4.342;2022-08-19T12:44:48;25.60;99.90
34833;DHT22;55941;50.800;4.342;2022-08-19T12:47:13;25.70;99.90
34833;DHT22;55941;50.800;4.342;2022-08-19T12:49:40;25.50;99.90
34833;DHT22;55941;50.800;4.342;2022-08-19T12:52:07;25.30;99.90
34833;DHT22;55941;50.800;4.342;2022-08-19T12:54:34;25.20;99.90
34833;DHT22;55941;50.800;4.342;2022-08-19T12:57:00;25.30;99.90
34833;DHT22;55941;50.800;4.342;2022-08-19T12:59:31;25.40;99.90
34833;DHT22;55941;50.800;4.342;2022-08-19T13:01:57;25.80;99.90
34833;DHT22;55941;50.800;4.342;2022-08-19T13:04:23;26.30;99.90
34833;DHT22;55941;50.800;4.342;2022-08-19T13:06:50;27.00;98.80
34833;DHT22;55941;50.800;4.342;2022-08-19T13:09:16;27.30;97.10
34833;DHT22;55941;50.800;4.342;2022-08-19T13:11:44;27.30;96.60
34833;DHT22;55941;50.800;4.342;2022-08-19T13:14:10;27.20;96.10
34833;DHT22;55941;50.800;4.342;2022-08-19T13:16:36;27.10;95.80
34833;DHT22;55941;50.800;4.342;2022-08-19T13:19:04;27.00;96.10
34833;DHT22;55941;50.800;4.342;2022-08-19T13:21:31;26.90;96.50
34833;DHT22;55941;50.800;4.342;2022-08-19T13:23:57;26.90;96.80
34833;DHT22;55941;50.800;4.342;2022-08-19T13:26:23;26.90;96.40
34833;DHT22;55941;50.800;4.342;2022-08-19T13:28:49;26.80;96.20
34833;DHT22;55941;50.800;4.342;2022-08-19T13:31:35;26.70;96.40
34833;DHT22;55941;50.800;4.342;2022-08-19T13:34:30;26.80;96.60
34833;DHT22;55941;50.800;4.342;2022-08-19T13:36:57;27.00;95.90
34833;DHT22;55941;50.800;4.342;2022-08-19T13:39:23;26.90;95.90
34833;DHT22;55941;50.800;4.342;2022-08-19T13:41:49;27.10;96.00
34833;DHT22;55941;50.800;4.342;2022-08-19T13:44:16;27.60;95.50
34833;DHT22;55941;50.800;4.342;2022-08-19T13:46:47;27.80;94.10
34833;DHT22;55941;50.800;4.342;2022-08-19T13:49:14;27.80;94.00
34833;DHT22;55941;50.800;4.342;2022-08-19T13:51:41;27.90;93.90
34833;DHT22;55941;50.800;4.342;2022-08-19T13:54:11;27.60;94.10
34833;DHT22;55941;50.800;4.342;2022-08-19T13:56:44;27.30;94.60
34833;DHT22;55941;50.800;4.342;2022-08-19T13:59:11;26.90;95.20
34833;DHT22;55941;50.800;4.342;2022-08-19T14:01:37;26.50;96.00
34833;DHT22;55941;50.800;4.342;2022-08-19T14:04:06;26.60;96.40
34833;DHT22;55941;50.800;4.342;2022-08-19T14:06:32;26.30;98.00
34833;DHT22;55941;50.800;4.342;2022-08-19T14:08:58;25.90;99.90
34833;DHT22;55941;50.800;4.342;2022-08-19T14:11:25;25.60;99.90
34833;DHT22;55941;50.800;4.342;2022-08-19T14:13:51;25.40;99.90
34833;DHT22;55941;50.800;4.342;2022-08-19T14:16:18;25.40;99.90
34833;DHT22;55941;50.800;4.342;2022-08-19T14:18:44;25.50;99.90
34833;DHT22;55941;50.800;4.342;2022-08-19T14:21:16;25.30;99.90
34833;DHT22;55941;50.800;4.342;2022-08-19T14:23:43;25.00;99.90
34833;DHT22;55941;50.800;4.342;2022-08-19T14:26:13;24.80;99.90
34833;DHT22;55941;50.800;4.342;2022-08-19T14:28:40;24.70;99.90
34833;DHT22;55941;50.800;4.342;2022-08-19T14:31:08;24.50;99.90
34833;DHT22;55941;50.800;4.342;2022-08-19T14:33:34;24.30;99.90
34833;DHT22;55941;50.800;4.342;2022-08-19T14:36:00;24.00;99.90
34833;DHT22;55941;50.800;4.342;2022-08-19T14:38:27;23.90;99.90
34833;DHT22;55941;50.800;4.342;2022-08-19T14:43:33;23.90;99.90
34833;DHT22;55941;50.800;4.342;2022-08-19T14:45:59;24.00;99.90
34833;DHT22;55941;50.800;4.342;2022-08-19T14:48:25;23.90;99.90
34833;DHT22;55941;50.800;4.342;2022-08-19T14:50:52;24.20;99.90
34833;DHT22;55941;50.800;4.342;2022-08-19T14:53:18;24.90;99.90
34833;DHT22;55941;50.800;4.342;2022-08-19T14:55:45;26.40;99.90
34833;DHT22;55941;50.800;4.342;2022-08-19T14:58:11;28.00;99.90
34833;DHT22;55941;50.800;4.342;2022-08-19T15:00:38;29.40;99.90
34833;DHT22;55941;50.800;4.342;2022-08-19T15:03:04;29.50;97.30
34833;DHT22;55941;50.800;4.342;2022-08-19T15:05:30;29.00;96.80
34833;DHT22;55941;50.800;4.342;2022-08-19T15:07:57;28.50;97.80
34833;DHT22;55941;50.800;4.342;2022-08-19T15:10:23;28.00;98.20
34833;DHT22;55941;50.800;4.342;2022-08-19T15:12:50;27.50;99.00
34833;DHT22;55941;50.800;4.342;2022-08-19T15:15:17;27.00;99.70
34833;DHT22;55941;50.800;4.342;2022-08-19T15:17:45;26.50;99.90
34833;DHT22;55941;50.800;4.342;2022-08-19T15:20:15;26.00;99.90
34833;DHT22;55941;50.800;4.342;2022-08-19T15:22:42;25.70;99.90
34833;DHT22;55941;50.800;4.342;2022-08-19T15:25:10;25.60;99.90
34833;DHT22;55941;50.800;4.342;2022-08-19T15:27:36;25.80;99.90
34833;DHT22;55941;50.800;4.342;2022-08-19T15:30:02;26.40;99.90
34833;DHT22;55941;50.800;4.342;2022-08-19T15:32:29;27.00;99.90
34833;DHT22;55941;50.800;4.342;2022-08-19T15:34:55;27.90;99.60
34833;DHT22;55941;50.800;4.342;2022-08-19T15:37:21;28.50;96.80
34833;DHT22;55941;50.800;4.342;2022-08-19T15:39:48;29.10;94.80
34833;DHT22;55941;50.800;4.342;2022-08-19T15:42:14;29.20;94.60
34833;DHT22;55941;50.800;4.342;2022-08-19T15:44:41;28.80;95.50
34833;DHT22;55941;50.800;4.342;2022-08-19T15:47:14;28.40;96.10
34833;DHT22;55941;50.800;4.342;2022-08-19T15:49:40;27.90;96.20
34833;DHT22;55941;50.800;4.342;2022-08-19T15:52:06;28.00;96.00